sensor_id;sensor_type;location;lat;lon;timestamp;P1;durP1;ratioP1;P2;durP2;ratioP2
47603;SDS011;33326;51.116;6.900;2023-05-16T00:02:43;9.43;;;5.78;;
47603;SDS011;33326;51.116;6.900;2023-05-16T00:07:46;12.20;;;5.90;;
47603;SDS011;33326;51.116;6.900;2023-05-16T00:19:16;13.82;;;10.60;;
47603;SDS011;33326;51.116;6.900;2023-05-16T00:24:19;15.98;;;11.40;;
47603;SDS011;33326;51.116;6.900;2023-05-16T00:29:21;25.35;;;16.73;;
47603;SDS011;33326;51.116;6.900;2023-05-16T00:34:24;28.00;;;17.48;;
47603;SDS011;33326;51.116;6.900;2023-05-16T00:39:26;15.90;;;12.70;;
47603;SDS011;33326;51.116;6.900;2023-05-16T00:44:30;14.52;;;10.45;;
47603;SDS011;33326;51.116;6.900;2023-05-16T00:49:33;11.50;;;8.50;;
47603;SDS011;33326;51.116;6.900;2023-05-16T00:54:35;17.13;;;11.50;;
47603;SDS011;33326;51.116;6.900;2023-05-16T00:59:37;17.95;;;13.73;;
47603;SDS011;33326;51.116;6.900;2023-05-16T01:04:41;23.10;;;14.90;;
47603;SDS011;33326;51.116;6.900;2023-05-16T01:09:43;19.20;;;14.98;;
47603;SDS011;33326;51.116;6.900;2023-05-16T01:14:49;17.40;;;13.80;;
47603;SDS011;33326;51.116;6.900;2023-05-16T01:31:34;22.27;;;14.13;;
47603;SDS011;33326;51.116;6.900;2023-05-16T01:36:38;19.45;;;12.77;;
47603;SDS011;33326;51.116;6.900;2023-05-16T01:41:46;21.30;;;13.70;;
47603;SDS011;33326;51.116;6.900;2023-05-16T01:46:57;17.30;;;12.88;;
47603;SDS011;33326;51.116;6.900;2023-05-16T01:52:03;20.75;;;15.02;;
47603;SDS011;33326;51.116;6.900;2023-05-16T01:57:09;20.48;;;14.60;;
47603;SDS011;33326;51.116;6.900;2023-05-16T02:02:13;18.60;;;10.77;;
47603;SDS011;33326;51.116;6.900;2023-05-16T02:07:18;20.63;;;7.93;;
47603;SDS011;33326;51.116;6.900;2023-05-16T02:12:20;14.68;;;6.13;;
47603;SDS011;33326;51.116;6.900;2023-05-16T02:17:23;14.13;;;6.10;;
47603;SDS011;33326;51.116;6.900;2023-05-16T02:22:25;13.68;;;5.25;;
47603;SDS011;33326;51.116;6.900;2023-05-16T02:27:27;13.20;;;4.75;;
47603;SDS011;33326;51.116;6.900;2023-05-16T02:32:30;13.55;;;4.50;;
47603;SDS011;33326;51.116;6.900;2023-05-16T02:37:32;11.82;;;4.28;;
47603;SDS011;33326;51.116;6.900;2023-05-16T02:42:34;15.57;;;5.10;;
47603;SDS011;33326;51.116;6.900;2023-05-16T02:47:37;16.17;;;5.53;;
47603;SDS011;33326;51.116;6.900;2023-05-16T02:52:39;17.15;;;6.18;;
47603;SDS011;33326;51.116;6.900;2023-05-16T02:57:41;20.02;;;5.90;;
47603;SDS011;33326;51.116;6.900;2023-05-16T03:02:47;24.30;;;5.88;;
47603;SDS011;33326;51.116;6.900;2023-05-16T03:07:49;22.23;;;5.60;;
47603;SDS011;33326;51.116;6.900;2023-05-16T03:12:50;16.77;;;5.30;;
47603;SDS011;33326;51.116;6.900;2023-05-16T03:17:54;19.30;;;5.13;;
47603;SDS011;33326;51.116;6.900;2023-05-16T03:22:57;18.95;;;6.40;;
47603;SDS011;33326;51.116;6.900;2023-05-16T03:27:58;30.65;;;7.15;;
47603;SDS011;33326;51.116;6.900;2023-05-16T03:33:02;18.60;;;6.13;;
47603;SDS011;33326;51.116;6.900;2023-05-16T03:38:04;22.17;;;6.75;;
47603;SDS011;33326;51.116;6.900;2023-05-16T03:43:06;17.40;;;5.90;;
47603;SDS011;33326;51.116;6.900;2023-05-16T03:48:09;22.27;;;6.55;;
47603;SDS011;33326;51.116;6.900;2023-05-16T03:53:11;21.42;;;6.55;;
47603;SDS011;33326;51.116;6.900;2023-05-16T03:58:13;23.38;;;7.35;;
47603;SDS011;33326;51.116;6.900;2023-05-16T04:03:16;23.33;;;6.65;;
47603;SDS011;33326;51.116;6.900;2023-05-16T04:08:18;19.75;;;6.97;;
47603;SDS011;33326;51.116;6.900;2023-05-16T04:13:20;20.58;;;6.22;;
47603;SDS011;33326;51.116;6.900;2023-05-16T04:18:23;28.45;;;5.85;;
47603;SDS011;33326;51.116;6.900;2023-05-16T04:23:25;20.67;;;5.47;;
47603;SDS011;33326;51.116;6.900;2023-05-16T04:28:27;18.80;;;4.72;;
47603;SDS011;33326;51.116;6.900;2023-05-16T04:33:30;20.65;;;3.70;;
47603;SDS011;33326;51.116;6.900;2023-05-16T04:38:32;16.92;;;3.90;;
47603;SDS011;33326;51.116;6.900;2023-05-16T04:43:34;18.63;;;4.00;;
47603;SDS011;33326;51.116;6.900;2023-05-16T04:48:37;23.58;;;4.28;;
47603;SDS011;33326;51.116;6.900;2023-05-16T04:53:39;20.13;;;4.43;;
47603;SDS011;33326;51.116;6.900;2023-05-16T04:58:41;18.95;;;3.70;;
47603;SDS011;33326;51.116;6.900;2023-05-16T05:03:44;15.02;;;3.95;;
47603;SDS011;33326;51.116;6.900;2023-05-16T05:08:46;17.15;;;4.03;;
47603;SDS011;33326;51.116;6.900;2023-05-16T05:13:48;18.42;;;3.28;;
47603;SDS011;33326;51.116;6.900;2023-05-16T05:18:51;21.40;;;3.88;;
47603;SDS011;33326;51.116;6.900;2023-05-16T05:23:53;17.35;;;3.35;;
47603;SDS011;33326;51.116;6.900;2023-05-16T05:28:55;17.90;;;3.97;;
47603;SDS011;33326;51.116;6.900;2023-05-16T05:33:58;16.05;;;3.72;;
47603;SDS011;33326;51.116;6.900;2023-05-16T05:39:00;15.90;;;3.30;;
47603;SDS011;33326;51.116;6.900;2023-05-16T05:44:02;16.08;;;3.15;;
47603;SDS011;33326;51.116;6.900;2023-05-16T05:49:06;20.08;;;4.22;;
47603;SDS011;33326;51.116;6.900;2023-05-16T05:54:09;18.33;;;3.88;;
47603;SDS011;33326;51.116;6.900;2023-05-16T05:59:10;17.05;;;3.10;;
47603;SDS011;33326;51.116;6.900;2023-05-16T06:04:14;17.63;;;3.20;;
47603;SDS011;33326;51.116;6.900;2023-05-16T06:09:16;15.48;;;3.65;;
47603;SDS011;33326;51.116;6.900;2023-05-16T06:14:18;17.50;;;3.00;;
47603;SDS011;33326;51.116;6.900;2023-05-16T06:19:21;18.48;;;3.72;;
47603;SDS011;33326;51.116;6.900;2023-05-16T06:24:23;19.23;;;3.35;;
47603;SDS011;33326;51.116;6.900;2023-05-16T06:29:25;17.73;;;2.83;;
47603;SDS011;33326;51.116;6.900;2023-05-16T06:34:28;18.60;;;3.10;;
47603;SDS011;33326;51.116;6.900;2023-05-16T06:39:31;14.07;;;3.15;;
47603;SDS011;33326;51.116;6.900;2023-05-16T06:44:33;16.17;;;3.03;;
47603;SDS011;33326;51.116;6.900;2023-05-16T06:49:36;17.73;;;3.58;;
47603;SDS011;33326;51.116;6.900;2023-05-16T06:54:38;19.40;;;3.10;;
47603;SDS011;33326;51.116;6.900;2023-05-16T06:59:39;14.15;;;3.38;;
47603;SDS011;33326;51.116;6.900;2023-05-16T07:04:43;13.18;;;2.83;;
47603;SDS011;33326;51.116;6.900;2023-05-16T07:09:45;10.43;;;2.53;;
47603;SDS011;33326;51.116;6.900;2023-05-16T07:14:46;14.02;;;2.70;;
47603;SDS011;33326;51.116;6.900;2023-05-16T07:19:50;17.98;;;2.80;;
47603;SDS011;33326;51.116;6.900;2023-05-16T07:24:52;12.93;;;2.72;;
47603;SDS011;33326;51.116;6.900;2023-05-16T07:29:56;15.57;;;3.13;;
47603;SDS011;33326;51.116;6.900;2023-05-16T07:34:59;9.90;;;2.28;;
47603;SDS011;33326;51.116;6.900;2023-05-16T07:40:01;14.07;;;2.75;;
47603;SDS011;33326;51.116;6.900;2023-05-16T07:45:04;12.07;;;2.50;;
47603;SDS011;33326;51.116;6.900;2023-05-16T07:50:09;9.68;;;2.75;;
47603;SDS011;33326;51.116;6.900;2023-05-16T07:55:11;14.48;;;3.30;;
47603;SDS011;33326;51.116;6.900;2023-05-16T08:00:13;10.13;;;3.25;;
47603;SDS011;33326;51.116;6.900;2023-05-16T08:05:17;14.20;;;3.55;;
47603;SDS011;33326;51.116;6.900;2023-05-16T08:10:19;12.18;;;3.47;;
47603;SDS011;33326;51.116;6.900;2023-05-16T08:15:21;12.15;;;2.97;;
47603;SDS011;33326;51.116;6.900;2023-05-16T08:20:24;13.18;;;3.10;;
47603;SDS011;33326;51.116;6.900;2023-05-16T08:25:26;11.30;;;3.17;;
47603;SDS011;33326;51.116;6.900;2023-05-16T08:30:28;12.32;;;2.45;;
47603;SDS011;33326;51.116;6.900;2023-05-16T08:35:31;13.10;;;2.28;;
47603;SDS011;33326;51.116;6.900;2023-05-16T08:40:34;8.43;;;2.25;;
47603;SDS011;33326;51.116;6.900;2023-05-16T08:45:36;9.57;;;2.88;;
47603;SDS011;33326;51.116;6.900;2023-05-16T08:50:39;12.73;;;2.65;;
47603;SDS011;33326;51.116;6.900;2023-05-16T08:55:42;12.00;;;2.80;;
47603;SDS011;33326;51.116;6.900;2023-05-16T09:00:45;13.82;;;3.25;;
47603;SDS011;33326;51.116;6.900;2023-05-16T09:05:49;11.68;;;2.63;;
47603;SDS011;33326;51.116;6.900;2023-05-16T09:10:51;11.60;;;2.85;;
47603;SDS011;33326;51.116;6.900;2023-05-16T09:16:09;11.65;;;2.90;;
47603;SDS011;33326;51.116;6.900;2023-05-16T09:21:13;8.88;;;3.00;;
47603;SDS011;33326;51.116;6.900;2023-05-16T09:26:16;10.45;;;2.92;;
47603;SDS011;33326;51.116;6.900;2023-05-16T09:31:20;7.57;;;2.50;;
47603;SDS011;33326;51.116;6.900;2023-05-16T09:36:23;11.50;;;2.25;;
47603;SDS011;33326;51.116;6.900;2023-05-16T09:41:26;6.53;;;1.98;;
47603;SDS011;33326;51.116;6.900;2023-05-16T09:46:28;7.53;;;2.28;;
47603;SDS011;33326;51.116;6.900;2023-05-16T09:51:31;7.78;;;1.88;;
47603;SDS011;33326;51.116;6.900;2023-05-16T09:56:33;6.97;;;1.52;;
47603;SDS011;33326;51.116;6.900;2023-05-16T10:01:49;9.60;;;2.00;;
47603;SDS011;33326;51.116;6.900;2023-05-16T10:06:55;9.98;;;1.80;;
47603;SDS011;33326;51.116;6.900;2023-05-16T10:11:57;8.40;;;1.88;;
47603;SDS011;33326;51.116;6.900;2023-05-16T10:17:03;8.55;;;2.17;;
47603;SDS011;33326;51.116;6.900;2023-05-16T10:22:09;8.82;;;2.08;;
47603;SDS011;33326;51.116;6.900;2023-05-16T10:27:13;7.78;;;2.20;;
47603;SDS011;33326;51.116;6.900;2023-05-16T10:32:16;6.13;;;1.42;;
47603;SDS011;33326;51.116;6.900;2023-05-16T10:37:20;7.43;;;1.85;;
47603;SDS011;33326;51.116;6.900;2023-05-16T10:42:22;6.68;;;1.25;;
47603;SDS011;33326;51.116;6.900;2023-05-16T10:47:24;8.57;;;2.10;;
47603;SDS011;33326;51.116;6.900;2023-05-16T10:52:33;6.07;;;1.88;;
47603;SDS011;33326;51.116;6.900;2023-05-16T10:57:35;4.65;;;1.83;;
47603;SDS011;33326;51.116;6.900;2023-05-16T11:02:39;7.05;;;1.85;;
47603;SDS011;33326;51.116;6.900;2023-05-16T11:07:43;8.35;;;1.80;;
47603;SDS011;33326;51.116;6.900;2023-05-16T11:13:06;6.72;;;1.90;;
47603;SDS011;33326;51.116;6.900;2023-05-16T11:18:09;8.05;;;2.17;;
47603;SDS011;33326;51.116;6.900;2023-05-16T11:23:23;12.90;;;3.00;;
47603;SDS011;33326;51.116;6.900;2023-05-16T11:28:26;9.20;;;2.13;;
47603;SDS011;33326;51.116;6.900;2023-05-16T11:33:29;9.88;;;2.38;;
47603;SDS011;33326;51.116;6.900;2023-05-16T11:38:35;8.00;;;2.35;;
47603;SDS011;33326;51.116;6.900;2023-05-16T11:43:43;13.07;;;2.47;;
47603;SDS011;33326;51.116;6.900;2023-05-16T11:48:45;9.82;;;2.33;;
47603;SDS011;33326;51.116;6.900;2023-05-16T11:53:48;9.95;;;2.30;;
47603;SDS011;33326;51.116;6.900;2023-05-16T11:58:51;6.18;;;1.58;;
47603;SDS011;33326;51.116;6.900;2023-05-16T12:03:54;8.07;;;1.58;;
47603;SDS011;33326;51.116;6.900;2023-05-16T12:08:58;4.57;;;1.50;;
47603;SDS011;33326;51.116;6.900;2023-05-16T12:14:02;6.55;;;1.40;;
47603;SDS011;33326;51.116;6.900;2023-05-16T12:19:04;8.00;;;1.70;;
47603;SDS011;33326;51.116;6.900;2023-05-16T12:24:09;3.90;;;1.25;;
47603;SDS011;33326;51.116;6.900;2023-05-16T12:29:12;5.07;;;1.40;;
47603;SDS011;33326;51.116;6.900;2023-05-16T12:34:16;3.70;;;1.10;;
47603;SDS011;33326;51.116;6.900;2023-05-16T12:39:21;7.07;;;1.63;;
47603;SDS011;33326;51.116;6.900;2023-05-16T12:44:24;6.65;;;1.88;;
47603;SDS011;33326;51.116;6.900;2023-05-16T12:49:31;2.85;;;1.30;;
47603;SDS011;33326;51.116;6.900;2023-05-16T12:54:35;5.00;;;1.10;;
47603;SDS011;33326;51.116;6.900;2023-05-16T12:59:37;4.40;;;1.50;;
47603;SDS011;33326;51.116;6.900;2023-05-16T13:04:38;4.05;;;1.30;;
47603;SDS011;33326;51.116;6.900;2023-05-16T13:09:42;4.88;;;1.40;;
47603;SDS011;33326;51.116;6.900;2023-05-16T13:14:44;3.78;;;1.20;;
47603;SDS011;33326;51.116;6.900;2023-05-16T13:19:45;3.63;;;1.10;;
47603;SDS011;33326;51.116;6.900;2023-05-16T13:24:49;5.05;;;1.50;;
47603;SDS011;33326;51.116;6.900;2023-05-16T13:29:51;5.10;;;1.38;;
47603;SDS011;33326;51.116;6.900;2023-05-16T13:34:52;2.33;;;1.17;;
47603;SDS011;33326;51.116;6.900;2023-05-16T13:39:56;3.78;;;1.30;;
47603;SDS011;33326;51.116;6.900;2023-05-16T13:44:58;5.18;;;1.23;;
47603;SDS011;33326;51.116;6.900;2023-05-16T13:49:59;3.85;;;1.10;;
47603;SDS011;33326;51.116;6.900;2023-05-16T13:55:10;4.03;;;1.52;;
47603;SDS011;33326;51.116;6.900;2023-05-16T14:00:12;5.60;;;2.08;;
47603;SDS011;33326;51.116;6.900;2023-05-16T14:05:14;3.90;;;1.17;;
47603;SDS011;33326;51.116;6.900;2023-05-16T14:10:17;3.13;;;1.13;;
47603;SDS011;33326;51.116;6.900;2023-05-16T14:15:19;3.10;;;1.27;;
47603;SDS011;33326;51.116;6.900;2023-05-16T14:20:21;5.78;;;1.48;;
47603;SDS011;33326;51.116;6.900;2023-05-16T14:25:24;5.38;;;1.70;;
47603;SDS011;33326;51.116;6.900;2023-05-16T14:30:26;4.95;;;1.63;;
47603;SDS011;33326;51.116;6.900;2023-05-16T14:35:28;7.38;;;1.83;;
47603;SDS011;33326;51.116;6.900;2023-05-16T14:40:31;5.00;;;1.50;;
47603;SDS011;33326;51.116;6.900;2023-05-16T14:45:33;5.13;;;1.80;;
47603;SDS011;33326;51.116;6.900;2023-05-16T14:50:35;6.90;;;1.88;;
47603;SDS011;33326;51.116;6.900;2023-05-16T14:55:38;6.07;;;1.77;;
47603;SDS011;33326;51.116;6.900;2023-05-16T15:00:40;4.55;;;2.03;;
47603;SDS011;33326;51.116;6.900;2023-05-16T15:05:42;5.85;;;1.88;;
47603;SDS011;33326;51.116;6.900;2023-05-16T15:10:46;6.68;;;2.05;;
47603;SDS011;33326;51.116;6.900;2023-05-16T15:15:47;4.63;;;1.67;;
47603;SDS011;33326;51.116;6.900;2023-05-16T15:20:49;6.40;;;1.63;;
47603;SDS011;33326;51.116;6.900;2023-05-16T15:25:53;6.63;;;2.15;;
47603;SDS011;33326;51.116;6.900;2023-05-16T15:30:55;5.57;;;1.92;;
47603;SDS011;33326;51.116;6.900;2023-05-16T15:35:57;5.65;;;2.08;;
47603;SDS011;33326;51.116;6.900;2023-05-16T15:41:00;6.78;;;1.90;;
47603;SDS011;33326;51.116;6.900;2023-05-16T15:46:05;5.78;;;2.15;;
47603;SDS011;33326;51.116;6.900;2023-05-16T15:51:08;4.85;;;2.05;;
47603;SDS011;33326;51.116;6.900;2023-05-16T15:56:11;8.07;;;2.55;;
47603;SDS011;33326;51.116;6.900;2023-05-16T16:01:13;4.15;;;2.10;;
47603;SDS011;33326;51.116;6.900;2023-05-16T16:06:15;4.55;;;2.10;;
47603;SDS011;33326;51.116;6.900;2023-05-16T16:11:18;7.45;;;2.30;;
47603;SDS011;33326;51.116;6.900;2023-05-16T16:16:21;8.07;;;2.35;;
47603;SDS011;33326;51.116;6.900;2023-05-16T16:21:23;8.23;;;2.38;;
47603;SDS011;33326;51.116;6.900;2023-05-16T16:26:26;5.43;;;1.80;;
47603;SDS011;33326;51.116;6.900;2023-05-16T16:31:28;6.90;;;2.28;;
47603;SDS011;33326;51.116;6.900;2023-05-16T16:36:30;7.32;;;2.20;;
47603;SDS011;33326;51.116;6.900;2023-05-16T16:41:33;5.68;;;1.80;;
47603;SDS011;33326;51.116;6.900;2023-05-16T16:46:35;8.80;;;2.28;;
47603;SDS011;33326;51.116;6.900;2023-05-16T16:51:37;8.73;;;1.90;;
47603;SDS011;33326;51.116;6.900;2023-05-16T16:56:40;8.10;;;2.50;;
47603;SDS011;33326;51.116;6.900;2023-05-16T17:01:42;5.97;;;1.90;;
47603;SDS011;33326;51.116;6.900;2023-05-16T17:06:44;7.10;;;2.15;;
47603;SDS011;33326;51.116;6.900;2023-05-16T17:11:47;5.70;;;2.33;;
47603;SDS011;33326;51.116;6.900;2023-05-16T17:16:49;6.78;;;2.03;;
47603;SDS011;33326;51.116;6.900;2023-05-16T17:21:51;7.72;;;2.50;;
47603;SDS011;33326;51.116;6.900;2023-05-16T17:26:55;5.82;;;2.10;;
47603;SDS011;33326;51.116;6.900;2023-05-16T17:31:57;6.35;;;2.47;;
47603;SDS011;33326;51.116;6.900;2023-05-16T17:36:59;8.77;;;2.80;;
47603;SDS011;33326;51.116;6.900;2023-05-16T17:42:02;8.68;;;2.47;;
47603;SDS011;33326;51.116;6.900;2023-05-16T17:47:05;8.48;;;2.50;;
47603;SDS011;33326;51.116;6.900;2023-05-16T17:52:07;7.88;;;3.13;;
47603;SDS011;33326;51.116;6.900;2023-05-16T17:57:10;5.88;;;2.50;;
47603;SDS011;33326;51.116;6.900;2023-05-16T18:02:12;9.82;;;2.78;;
47603;SDS011;33326;51.116;6.900;2023-05-16T18:07:15;8.07;;;2.97;;
47603;SDS011;33326;51.116;6.900;2023-05-16T18:12:18;8.02;;;3.05;;
47603;SDS011;33326;51.116;6.900;2023-05-16T18:17:20;8.23;;;2.55;;
47603;SDS011;33326;51.116;6.900;2023-05-16T18:22:22;14.05;;;2.72;;
47603;SDS011;33326;51.116;6.900;2023-05-16T18:27:25;7.90;;;2.40;;
47603;SDS011;33326;51.116;6.900;2023-05-16T18:32:27;5.50;;;2.13;;
47603;SDS011;33326;51.116;6.900;2023-05-16T18:37:30;9.68;;;2.72;;
47603;SDS011;33326;51.116;6.900;2023-05-16T18:42:33;7.82;;;2.55;;
47603;SDS011;33326;51.116;6.900;2023-05-16T18:47:35;8.57;;;2.67;;
47603;SDS011;33326;51.116;6.900;2023-05-16T18:52:37;6.60;;;2.55;;
47603;SDS011;33326;51.116;6.900;2023-05-16T18:57:41;8.93;;;2.75;;
47603;SDS011;33326;51.116;6.900;2023-05-16T19:02:44;9.75;;;3.28;;
47603;SDS011;33326;51.116;6.900;2023-05-16T19:07:46;9.60;;;2.72;;
47603;SDS011;33326;51.116;6.900;2023-05-16T19:12:49;7.70;;;2.90;;
47603;SDS011;33326;51.116;6.900;2023-05-16T19:17:51;8.82;;;2.58;;
47603;SDS011;33326;51.116;6.900;2023-05-16T19:22:53;9.02;;;2.55;;
47603;SDS011;33326;51.116;6.900;2023-05-16T19:27:56;7.78;;;2.67;;
47603;SDS011;33326;51.116;6.900;2023-05-16T19:32:58;9.18;;;2.38;;
47603;SDS011;33326;51.116;6.900;2023-05-16T19:38:00;7.35;;;2.47;;
47603;SDS011;33326;51.116;6.900;2023-05-16T19:43:03;8.05;;;2.10;;
47603;SDS011;33326;51.116;6.900;2023-05-16T19:48:09;7.43;;;2.00;;
47603;SDS011;33326;51.116;6.900;2023-05-16T19:53:11;6.03;;;1.83;;
47603;SDS011;33326;51.116;6.900;2023-05-16T19:58:14;7.28;;;1.98;;
47603;SDS011;33326;51.116;6.900;2023-05-16T20:03:18;11.35;;;2.58;;
47603;SDS011;33326;51.116;6.900;2023-05-16T20:08:20;6.80;;;2.22;;
47603;SDS011;33326;51.116;6.900;2023-05-16T20:13:23;9.35;;;2.15;;
47603;SDS011;33326;51.116;6.900;2023-05-16T20:18:25;5.95;;;2.10;;
47603;SDS011;33326;51.116;6.900;2023-05-16T20:23:27;10.00;;;2.25;;
47603;SDS011;33326;51.116;6.900;2023-05-16T20:28:30;6.72;;;2.17;;
47603;SDS011;33326;51.116;6.900;2023-05-16T20:33:32;12.68;;;2.78;;
47603;SDS011;33326;51.116;6.900;2023-05-16T20:38:34;8.85;;;2.10;;
47603;SDS011;33326;51.116;6.900;2023-05-16T20:43:38;7.95;;;2.38;;
47603;SDS011;33326;51.116;6.900;2023-05-16T20:48:40;5.72;;;2.05;;
47603;SDS011;33326;51.116;6.900;2023-05-16T20:53:42;9.90;;;2.63;;
47603;SDS011;33326;51.116;6.900;2023-05-16T20:58:45;6.20;;;2.00;;
47603;SDS011;33326;51.116;6.900;2023-05-16T21:03:47;8.90;;;2.38;;
47603;SDS011;33326;51.116;6.900;2023-05-16T21:08:49;10.85;;;2.80;;
47603;SDS011;33326;51.116;6.900;2023-05-16T21:13:52;12.30;;;2.85;;
47603;SDS011;33326;51.116;6.900;2023-05-16T21:18:54;7.57;;;2.80;;
47603;SDS011;33326;51.116;6.900;2023-05-16T21:23:56;7.05;;;2.78;;
47603;SDS011;33326;51.116;6.900;2023-05-16T21:28:59;7.40;;;2.78;;
47603;SDS011;33326;51.116;6.900;2023-05-16T21:34:01;7.05;;;2.78;;
47603;SDS011;33326;51.116;6.900;2023-05-16T21:39:03;11.52;;;3.25;;
47603;SDS011;33326;51.116;6.900;2023-05-16T21:44:07;8.88;;;2.78;;
47603;SDS011;33326;51.116;6.900;2023-05-16T21:49:12;8.93;;;2.95;;
47603;SDS011;33326;51.116;6.900;2023-05-16T21:54:14;7.18;;;3.00;;
47603;SDS011;33326;51.116;6.900;2023-05-16T21:59:17;6.90;;;2.75;;
47603;SDS011;33326;51.116;6.900;2023-05-16T22:04:19;11.55;;;2.92;;
47603;SDS011;33326;51.116;6.900;2023-05-16T22:09:22;8.55;;;2.80;;
47603;SDS011;33326;51.116;6.900;2023-05-16T22:14:25;9.75;;;2.92;;
47603;SDS011;33326;51.116;6.900;2023-05-16T22:19:27;7.60;;;2.80;;
47603;SDS011;33326;51.116;6.900;2023-05-16T22:24:29;12.18;;;3.38;;
47603;SDS011;33326;51.116;6.900;2023-05-16T22:29:32;9.18;;;2.88;;
47603;SDS011;33326;51.116;6.900;2023-05-16T22:34:37;7.47;;;2.50;;
47603;SDS011;33326;51.116;6.900;2023-05-16T22:39:39;4.90;;;2.55;;
47603;SDS011;33326;51.116;6.900;2023-05-16T22:44:42;10.88;;;3.03;;
47603;SDS011;33326;51.116;6.900;2023-05-16T22:49:44;9.13;;;3.15;;
47603;SDS011;33326;51.116;6.900;2023-05-16T22:54:45;8.18;;;2.60;;
47603;SDS011;33326;51.116;6.900;2023-05-16T22:59:49;8.88;;;2.83;;
47603;SDS011;33326;51.116;6.900;2023-05-16T23:04:51;10.50;;;3.10;;
47603;SDS011;33326;51.116;6.900;2023-05-16T23:09:53;9.50;;;2.58;;
47603;SDS011;33326;51.116;6.900;2023-05-16T23:14:56;11.18;;;2.95;;
47603;SDS011;33326;51.116;6.900;2023-05-16T23:19:58;5.55;;;2.42;;
47603;SDS011;33326;51.116;6.900;2023-05-16T23:24:59;7.13;;;2.95;;
47603;SDS011;33326;51.116;6.900;2023-05-16T23:30:03;7.07;;;2.88;;
47603;SDS011;33326;51.116;6.900;2023-05-16T23:35:07;7.95;;;3.00;;
47603;SDS011;33326;51.116;6.900;2023-05-16T23:40:09;6.43;;;3.00;;
47603;SDS011;33326;51.116;6.900;2023-05-16T23:45:12;10.05;;;3.25;;
47603;SDS011;33326;51.116;6.900;2023-05-16T23:50:15;8.73;;;3.50;;
47603;SDS011;33326;51.116;6.900;2023-05-16T23:55:17;5.90;;;3.08;;
